Airfield :
LOGIN :

Register | Disclaimer

   EN    FR    IT 

 










Legend :    VFR   Marginal VFR   IFR   Intensive IFR   Very Intensive IFR
Visi :
Ceiling :
>= 8 km
>= 3000ft
5 to 8 km
1000 to 3000 ft
1500m to 5 km
500 to 1000 ft
800 to 1500m
200 to 500 ft
< 800m
< 200 ft
Symbols :   Thunderstorms  Fog  Heavy snow  Heavy precipitations  Wind > 20 kt
SIGMETs :     Misc.  Thunderstorms  Icing  Turbulence  Mountain Waves  Volcanic Ashes







- Airport Elevation : 348 ft
- IATA code : LDV
- Download approach charts


LFRJ - Landivisiau

CURRENT METAR :
  • 240130Z AUTO 21020KT 5000 DZ BR OVC004 12/12 Q1016

EXPIRED METARs :
  • 240100Z AUTO 21021KT 9999 OVC004 12/12 Q1017
  • 240030Z AUTO 22018KT 7000 -DZ OVC004 12/12 Q1017
  • 240000Z AUTO 21020G30KT 6000 -DZ OVC005 12/12 Q1018
  • 232330Z AUTO 21017KT 190V250 6000 DZ OVC005 12/12 Q1018
  • 232300Z AUTO 22019KT 5000 DZ BR OVC005 12/12 Q1019

TAF TAF LFRJ
Valid from the 23 at 18:00 until the 24 at 03:00 UTC


231700Z 2318/2403 24018G28KT 6000 OVC004
TEMPO 2318/2324 3000 DZ BR OVC002
PROB30
TEMPO 2320/2322 1000 BCFG VV///
BECMG 2322/2324 0800 FG VV///
No reported NOTAMs for that airfield.



MET'MAP, your aeronautical weather chart ! - Copyright ORBIFLY December 2007 - Disclaimer

ORBIFLY MET'MAP TEAM :

Programming & Development : Alexandra Zaïnal
Concept & Development : Baudouin d'Aumeries
Co-Development & Prog : Marc-Olivier Méhu
Technical & hardware support : Manuel Goepfert

Contact : metmap@orbifly.com




SOURCES & CREDITS :

   NOAA